sensor_id;sensor_type;location;lat;lon;timestamp;temperature;humidity
71436;SHT31;59251;51.326;12.370;2023-04-25T00:01:03;7.84;83.59
71436;SHT31;59251;51.326;12.370;2023-04-25T00:03:30;7.87;83.56
71436;SHT31;59251;51.326;12.370;2023-04-25T00:05:55;7.85;83.66
71436;SHT31;59251;51.326;12.370;2023-04-25T00:08:22;7.88;83.51
71436;SHT31;59251;51.326;12.370;2023-04-25T00:10:47;7.97;83.23
71436;SHT31;59251;51.326;12.370;2023-04-25T00:13:14;7.71;84.11
71436;SHT31;59251;51.326;12.370;2023-04-25T00:15:40;7.57;84.48
71436;SHT31;59251;51.326;12.370;2023-04-25T00:18:07;7.52;84.80
71436;SHT31;59251;51.326;12.370;2023-04-25T00:20:32;7.30;85.59
71436;SHT31;59251;51.326;12.370;2023-04-25T00:22:57;7.27;85.93
71436;SHT31;59251;51.326;12.370;2023-04-25T00:25:23;7.16;86.32
71436;SHT31;59251;51.326;12.370;2023-04-25T00:27:48;7.22;86.30
71436;SHT31;59251;51.326;12.370;2023-04-25T00:30:14;7.06;86.58
71436;SHT31;59251;51.326;12.370;2023-04-25T00:32:39;7.20;86.16
71436;SHT31;59251;51.326;12.370;2023-04-25T00:35:05;7.02;86.68
71436;SHT31;59251;51.326;12.370;2023-04-25T00:37:31;7.06;86.74
71436;SHT31;59251;51.326;12.370;2023-04-25T00:39:57;6.89;87.06
71436;SHT31;59251;51.326;12.370;2023-04-25T00:42:24;6.89;87.22
71436;SHT31;59251;51.326;12.370;2023-04-25T00:44:50;6.84;87.22
71436;SHT31;59251;51.326;12.370;2023-04-25T00:47:17;6.85;86.97
71436;SHT31;59251;51.326;12.370;2023-04-25T00:49:42;6.80;87.19
71436;SHT31;59251;51.326;12.370;2023-04-25T00:52:08;6.81;87.21
71436;SHT31;59251;51.326;12.370;2023-04-25T00:54:33;6.77;87.36
71436;SHT31;59251;51.326;12.370;2023-04-25T00:56:59;6.65;87.54
71436;SHT31;59251;51.326;12.370;2023-04-25T00:59:25;6.63;87.91
71436;SHT31;59251;51.326;12.370;2023-04-25T01:01:52;6.71;87.53
71436;SHT31;59251;51.326;12.370;2023-04-25T01:04:18;6.78;87.33
71436;SHT31;59251;51.326;12.370;2023-04-25T01:06:43;6.73;87.39
71436;SHT31;59251;51.326;12.370;2023-04-25T01:09:09;6.63;87.68
71436;SHT31;59251;51.326;12.370;2023-04-25T01:11:34;6.70;87.51
71436;SHT31;59251;51.326;12.370;2023-04-25T01:14:00;6.61;87.73
71436;SHT31;59251;51.326;12.370;2023-04-25T01:16:27;6.36;88.54
71436;SHT31;59251;51.326;12.370;2023-04-25T01:18:54;6.33;88.53
71436;SHT31;59251;51.326;12.370;2023-04-25T01:21:20;6.43;88.01
71436;SHT31;59251;51.326;12.370;2023-04-25T01:23:46;6.43;87.77
71436;SHT31;59251;51.326;12.370;2023-04-25T01:26:12;6.41;87.61
71436;SHT31;59251;51.326;12.370;2023-04-25T01:28:39;6.43;87.35
71436;SHT31;59251;51.326;12.370;2023-04-25T01:31:07;6.36;87.35
71436;SHT31;59251;51.326;12.370;2023-04-25T01:33:33;6.40;87.20
71436;SHT31;59251;51.326;12.370;2023-04-25T01:35:58;6.36;87.35
71436;SHT31;59251;51.326;12.370;2023-04-25T01:38:24;6.27;87.37
71436;SHT31;59251;51.326;12.370;2023-04-25T01:40:51;6.33;87.40
71436;SHT31;59251;51.326;12.370;2023-04-25T01:43:17;6.12;87.98
71436;SHT31;59251;51.326;12.370;2023-04-25T01:45:43;6.09;87.96
71436;SHT31;59251;51.326;12.370;2023-04-25T01:48:12;6.13;87.78
71436;SHT31;59251;51.326;12.370;2023-04-25T01:50:39;6.22;87.53
71436;SHT31;59251;51.326;12.370;2023-04-25T01:53:05;6.08;87.80
71436;SHT31;59251;51.326;12.370;2023-04-25T01:55:30;6.08;88.02
71436;SHT31;59251;51.326;12.370;2023-04-25T01:57:56;5.97;88.12
71436;SHT31;59251;51.326;12.370;2023-04-25T02:00:21;5.77;89.00
71436;SHT31;59251;51.326;12.370;2023-04-25T02:02:47;5.71;89.32
71436;SHT31;59251;51.326;12.370;2023-04-25T02:05:12;5.82;88.86
71436;SHT31;59251;51.326;12.370;2023-04-25T02:07:37;5.99;87.95
71436;SHT31;59251;51.326;12.370;2023-04-25T02:10:03;5.95;88.23
71436;SHT31;59251;51.326;12.370;2023-04-25T02:12:28;5.97;88.33
71436;SHT31;59251;51.326;12.370;2023-04-25T02:14:54;5.85;88.56
71436;SHT31;59251;51.326;12.370;2023-04-25T02:17:19;5.85;88.33
71436;SHT31;59251;51.326;12.370;2023-04-25T02:19:46;5.78;88.83
71436;SHT31;59251;51.326;12.370;2023-04-25T02:22:12;5.78;88.90
71436;SHT31;59251;51.326;12.370;2023-04-25T02:24:38;5.79;88.73
71436;SHT31;59251;51.326;12.370;2023-04-25T02:27:04;5.77;88.86
71436;SHT31;59251;51.326;12.370;2023-04-25T02:29:29;5.84;88.76
71436;SHT31;59251;51.326;12.370;2023-04-25T02:31:55;6.01;88.29
71436;SHT31;59251;51.326;12.370;2023-04-25T02:34:20;5.85;88.46
71436;SHT31;59251;51.326;12.370;2023-04-25T02:36:45;5.92;88.23
71436;SHT31;59251;51.326;12.370;2023-04-25T02:39:11;5.85;88.13
71436;SHT31;59251;51.326;12.370;2023-04-25T02:41:36;5.78;88.52
71436;SHT31;59251;51.326;12.370;2023-04-25T02:44:02;5.87;88.07
71436;SHT31;59251;51.326;12.370;2023-04-25T02:46:27;5.89;88.09
71436;SHT31;59251;51.326;12.370;2023-04-25T02:48:52;5.88;88.09
71436;SHT31;59251;51.326;12.370;2023-04-25T02:51:18;5.85;88.19
71436;SHT31;59251;51.326;12.370;2023-04-25T02:53:44;5.88;88.12
71436;SHT31;59251;51.326;12.370;2023-04-25T02:56:09;5.77;88.24
71436;SHT31;59251;51.326;12.370;2023-04-25T02:58:34;5.64;88.78
71436;SHT31;59251;51.326;12.370;2023-04-25T03:01:00;5.50;89.32
71436;SHT31;59251;51.326;12.370;2023-04-25T03:03:25;5.51;89.40
71436;SHT31;59251;51.326;12.370;2023-04-25T03:05:51;5.48;90.04
71436;SHT31;59251;51.326;12.370;2023-04-25T03:08:17;5.47;90.05
71436;SHT31;59251;51.326;12.370;2023-04-25T03:10:44;5.71;88.65
71436;SHT31;59251;51.326;12.370;2023-04-25T03:13:09;5.70;88.38
71436;SHT31;59251;51.326;12.370;2023-04-25T03:15:36;5.62;88.46
71436;SHT31;59251;51.326;12.370;2023-04-25T03:18:02;5.60;88.55
71436;SHT31;59251;51.326;12.370;2023-04-25T03:20:27;5.46;88.92
71436;SHT31;59251;51.326;12.370;2023-04-25T03:22:53;5.30;89.75
71436;SHT31;59251;51.326;12.370;2023-04-25T03:25:18;5.27;89.91
71436;SHT31;59251;51.326;12.370;2023-04-25T03:27:43;5.23;89.86
71436;SHT31;59251;51.326;12.370;2023-04-25T03:30:09;5.47;88.96
71436;SHT31;59251;51.326;12.370;2023-04-25T03:32:34;5.27;89.57
71436;SHT31;59251;51.326;12.370;2023-04-25T03:35:00;5.37;89.57
71436;SHT31;59251;51.326;12.370;2023-04-25T03:37:25;5.37;89.31
71436;SHT31;59251;51.326;12.370;2023-04-25T03:39:51;5.37;89.54
71436;SHT31;59251;51.326;12.370;2023-04-25T03:42:16;5.36;89.05
71436;SHT31;59251;51.326;12.370;2023-04-25T03:44:42;5.46;88.85
71436;SHT31;59251;51.326;12.370;2023-04-25T03:47:08;5.51;88.88
71436;SHT31;59251;51.326;12.370;2023-04-25T03:49:34;5.46;88.88
71436;SHT31;59251;51.326;12.370;2023-04-25T03:52:00;5.40;89.02
71436;SHT31;59251;51.326;12.370;2023-04-25T03:54:25;5.36;89.01
71436;SHT31;59251;51.326;12.370;2023-04-25T03:56:51;5.44;88.55
71436;SHT31;59251;51.326;12.370;2023-04-25T03:59:16;5.50;88.22
71436;SHT31;59251;51.326;12.370;2023-04-25T04:01:41;5.54;88.17
71436;SHT31;59251;51.326;12.370;2023-04-25T04:04:07;5.54;88.02
71436;SHT31;59251;51.326;12.370;2023-04-25T04:06:32;5.54;87.89
71436;SHT31;59251;51.326;12.370;2023-04-25T04:08:58;5.50;87.69
71436;SHT31;59251;51.326;12.370;2023-04-25T04:11:23;5.41;87.94
71436;SHT31;59251;51.326;12.370;2023-04-25T04:13:49;5.34;88.43
71436;SHT31;59251;51.326;12.370;2023-04-25T04:16:14;5.52;87.74
71436;SHT31;59251;51.326;12.370;2023-04-25T04:18:40;5.43;88.21
71436;SHT31;59251;51.326;12.370;2023-04-25T04:21:05;5.33;88.35
71436;SHT31;59251;51.326;12.370;2023-04-25T04:23:31;5.22;89.00
71436;SHT31;59251;51.326;12.370;2023-04-25T04:25:56;5.52;87.92
71436;SHT31;59251;51.326;12.370;2023-04-25T04:28:21;5.61;87.43
71436;SHT31;59251;51.326;12.370;2023-04-25T04:30:47;5.71;87.05
71436;SHT31;59251;51.326;12.370;2023-04-25T04:33:13;5.74;86.40
71436;SHT31;59251;51.326;12.370;2023-04-25T04:35:40;5.84;86.25
71436;SHT31;59251;51.326;12.370;2023-04-25T04:38:06;5.77;86.05
71436;SHT31;59251;51.326;12.370;2023-04-25T04:40:32;5.94;85.72
71436;SHT31;59251;51.326;12.370;2023-04-25T04:42:57;5.97;85.32
71436;SHT31;59251;51.326;12.370;2023-04-25T04:45:23;5.97;85.43
71436;SHT31;59251;51.326;12.370;2023-04-25T04:47:49;6.08;84.95
71436;SHT31;59251;51.326;12.370;2023-04-25T04:50:15;6.02;85.36
71436;SHT31;59251;51.326;12.370;2023-04-25T04:52:41;6.08;85.05
71436;SHT31;59251;51.326;12.370;2023-04-25T04:55:07;6.09;85.39
71436;SHT31;59251;51.326;12.370;2023-04-25T04:57:33;6.13;85.57
71436;SHT31;59251;51.326;12.370;2023-04-25T04:59:59;6.27;84.91
71436;SHT31;59251;51.326;12.370;2023-04-25T05:02:25;6.40;84.42
71436;SHT31;59251;51.326;12.370;2023-04-25T05:04:51;6.54;84.51
71436;SHT31;59251;51.326;12.370;2023-04-25T05:07:17;6.61;84.13
71436;SHT31;59251;51.326;12.370;2023-04-25T05:09:43;6.70;83.81
71436;SHT31;59251;51.326;12.370;2023-04-25T05:12:08;7.13;83.38
71436;SHT31;59251;51.326;12.370;2023-04-25T05:14:34;7.54;81.43
71436;SHT31;59251;51.326;12.370;2023-04-25T05:16:59;8.33;79.54
71436;SHT31;59251;51.326;12.370;2023-04-25T05:19:25;9.25;76.16
71436;SHT31;59251;51.326;12.370;2023-04-25T05:21:50;9.77;74.59
71436;SHT31;59251;51.326;12.370;2023-04-25T05:24:15;10.58;71.96
71436;SHT31;59251;51.326;12.370;2023-04-25T05:26:41;10.93;70.44
71436;SHT31;59251;51.326;12.370;2023-04-25T05:29:06;10.38;71.52
71436;SHT31;59251;51.326;12.370;2023-04-25T05:31:32;9.66;73.33
71436;SHT31;59251;51.326;12.370;2023-04-25T05:33:57;9.52;73.91
71436;SHT31;59251;51.326;12.370;2023-04-25T05:36:23;9.38;74.04
71436;SHT31;59251;51.326;12.370;2023-04-25T05:38:48;9.40;74.53
71436;SHT31;59251;51.326;12.370;2023-04-25T05:41:14;9.91;73.02
71436;SHT31;59251;51.326;12.370;2023-04-25T05:43:39;10.03;72.88
71436;SHT31;59251;51.326;12.370;2023-04-25T05:46:10;10.52;71.81
71436;SHT31;59251;51.326;12.370;2023-04-25T05:48:35;10.44;70.42
71436;SHT31;59251;51.326;12.370;2023-04-25T05:51:01;10.21;71.53
71436;SHT31;59251;51.326;12.370;2023-04-25T05:53:26;10.20;71.60
71436;SHT31;59251;51.326;12.370;2023-04-25T05:55:51;10.00;71.96
71436;SHT31;59251;51.326;12.370;2023-04-25T05:58:17;9.79;72.34
71436;SHT31;59251;51.326;12.370;2023-04-25T06:00:42;9.89;72.35
71436;SHT31;59251;51.326;12.370;2023-04-25T06:03:07;10.92;70.73
71436;SHT31;59251;51.326;12.370;2023-04-25T06:05:35;10.55;70.17
71436;SHT31;59251;51.326;12.370;2023-04-25T06:08:00;9.67;72.08
71436;SHT31;59251;51.326;12.370;2023-04-25T06:10:26;10.11;72.08
71436;SHT31;59251;51.326;12.370;2023-04-25T06:12:51;10.35;70.59
71436;SHT31;59251;51.326;12.370;2023-04-25T06:15:17;10.31;70.62
71436;SHT31;59251;51.326;12.370;2023-04-25T06:17:42;9.47;73.08
71436;SHT31;59251;51.326;12.370;2023-04-25T06:20:08;9.36;74.31
71436;SHT31;59251;51.326;12.370;2023-04-25T06:22:34;9.36;74.44
71436;SHT31;59251;51.326;12.370;2023-04-25T06:24:59;9.17;74.27
71436;SHT31;59251;51.326;12.370;2023-04-25T06:27:28;8.87;75.18
71436;SHT31;59251;51.326;12.370;2023-04-25T06:29:53;8.83;76.05
71436;SHT31;59251;51.326;12.370;2023-04-25T06:32:18;8.85;76.05
71436;SHT31;59251;51.326;12.370;2023-04-25T06:34:44;9.12;74.96
71436;SHT31;59251;51.326;12.370;2023-04-25T06:37:09;9.22;75.46
71436;SHT31;59251;51.326;12.370;2023-04-25T06:39:35;9.24;74.87
71436;SHT31;59251;51.326;12.370;2023-04-25T06:42:00;9.19;75.34
71436;SHT31;59251;51.326;12.370;2023-04-25T06:44:25;9.17;75.87
71436;SHT31;59251;51.326;12.370;2023-04-25T06:46:51;8.90;76.60
71436;SHT31;59251;51.326;12.370;2023-04-25T06:49:16;8.85;76.50
71436;SHT31;59251;51.326;12.370;2023-04-25T06:51:42;9.03;76.20
71436;SHT31;59251;51.326;12.370;2023-04-25T06:54:07;9.25;76.08
71436;SHT31;59251;51.326;12.370;2023-04-25T06:56:32;9.00;76.45
71436;SHT31;59251;51.326;12.370;2023-04-25T06:58:58;9.24;76.11
71436;SHT31;59251;51.326;12.370;2023-04-25T07:01:25;9.22;75.94
71436;SHT31;59251;51.326;12.370;2023-04-25T07:03:50;9.14;76.31
71436;SHT31;59251;51.326;12.370;2023-04-25T07:06:16;9.22;76.44
71436;SHT31;59251;51.326;12.370;2023-04-25T07:08:41;9.22;76.31
71436;SHT31;59251;51.326;12.370;2023-04-25T07:11:06;9.29;76.41
71436;SHT31;59251;51.326;12.370;2023-04-25T07:13:32;9.11;76.37
71436;SHT31;59251;51.326;12.370;2023-04-25T07:15:57;9.12;76.16
71436;SHT31;59251;51.326;12.370;2023-04-25T07:18:23;9.17;76.58
71436;SHT31;59251;51.326;12.370;2023-04-25T07:20:48;9.04;76.44
71436;SHT31;59251;51.326;12.370;2023-04-25T07:23:13;9.31;76.45
71436;SHT31;59251;51.326;12.370;2023-04-25T07:25:39;9.21;76.28
71436;SHT31;59251;51.326;12.370;2023-04-25T07:28:04;9.11;77.25
71436;SHT31;59251;51.326;12.370;2023-04-25T07:30:30;9.07;77.18
71436;SHT31;59251;51.326;12.370;2023-04-25T07:32:55;9.11;77.06
71436;SHT31;59251;51.326;12.370;2023-04-25T07:35:21;9.04;77.27
71436;SHT31;59251;51.326;12.370;2023-04-25T07:37:46;8.92;77.29
71436;SHT31;59251;51.326;12.370;2023-04-25T07:40:11;8.91;77.65
71436;SHT31;59251;51.326;12.370;2023-04-25T07:42:37;8.98;77.65
71436;SHT31;59251;51.326;12.370;2023-04-25T07:45:02;8.66;78.53
71436;SHT31;59251;51.326;12.370;2023-04-25T07:47:28;8.96;78.23
71436;SHT31;59251;51.326;12.370;2023-04-25T07:49:54;8.88;77.75
71436;SHT31;59251;51.326;12.370;2023-04-25T07:52:19;8.64;78.19
71436;SHT31;59251;51.326;12.370;2023-04-25T07:54:44;8.50;78.99
71436;SHT31;59251;51.326;12.370;2023-04-25T07:57:10;8.70;78.06
71436;SHT31;59251;51.326;12.370;2023-04-25T07:59:35;8.67;77.90
71436;SHT31;59251;51.326;12.370;2023-04-25T08:02:01;8.56;78.58
71436;SHT31;59251;51.326;12.370;2023-04-25T08:04:27;8.73;78.50
71436;SHT31;59251;51.326;12.370;2023-04-25T08:06:53;8.32;79.25
71436;SHT31;59251;51.326;12.370;2023-04-25T08:09:21;8.45;79.14
71436;SHT31;59251;51.326;12.370;2023-04-25T08:11:47;8.43;78.61
71436;SHT31;59251;51.326;12.370;2023-04-25T08:14:13;8.52;74.85
71436;SHT31;59251;51.326;12.370;2023-04-25T08:16:38;8.56;73.15
71436;SHT31;59251;51.326;12.370;2023-04-25T08:19:03;8.74;72.76
71436;SHT31;59251;51.326;12.370;2023-04-25T08:21:30;8.90;72.73
71436;SHT31;59251;51.326;12.370;2023-04-25T08:23:55;8.96;72.32
71436;SHT31;59251;51.326;12.370;2023-04-25T08:26:20;8.85;72.69
71436;SHT31;59251;51.326;12.370;2023-04-25T08:28:46;8.87;71.98
71436;SHT31;59251;51.326;12.370;2023-04-25T08:31:11;9.14;71.12
71436;SHT31;59251;51.326;12.370;2023-04-25T08:33:37;9.34;70.09
71436;SHT31;59251;51.326;12.370;2023-04-25T08:36:02;9.47;69.32
71436;SHT31;59251;51.326;12.370;2023-04-25T08:38:28;9.56;69.02
71436;SHT31;59251;51.326;12.370;2023-04-25T08:40:54;9.55;69.10
71436;SHT31;59251;51.326;12.370;2023-04-25T08:43:20;9.55;69.15
71436;SHT31;59251;51.326;12.370;2023-04-25T08:45:46;9.56;69.31
71436;SHT31;59251;51.326;12.370;2023-04-25T08:48:14;9.60;69.05
71436;SHT31;59251;51.326;12.370;2023-04-25T08:50:51;9.49;69.58
71436;SHT31;59251;51.326;12.370;2023-04-25T08:53:22;9.56;69.65
71436;SHT31;59251;51.326;12.370;2023-04-25T08:55:49;9.62;69.47
71436;SHT31;59251;51.326;12.370;2023-04-25T08:58:15;9.59;69.03
71436;SHT31;59251;51.326;12.370;2023-04-25T09:00:41;9.62;68.59
71436;SHT31;59251;51.326;12.370;2023-04-25T09:03:06;9.50;68.91
71436;SHT31;59251;51.326;12.370;2023-04-25T09:05:34;9.56;68.13
71436;SHT31;59251;51.326;12.370;2023-04-25T09:08:01;9.90;67.40
71436;SHT31;59251;51.326;12.370;2023-04-25T09:10:27;10.17;66.97
71436;SHT31;59251;51.326;12.370;2023-04-25T09:13:10;10.35;66.19
71436;SHT31;59251;51.326;12.370;2023-04-25T09:15:52;10.18;66.48
71436;SHT31;59251;51.326;12.370;2023-04-25T09:18:32;10.61;66.17
71436;SHT31;59251;51.326;12.370;2023-04-25T09:21:05;10.53;66.64
71436;SHT31;59251;51.326;12.370;2023-04-25T09:23:39;10.28;67.26
71436;SHT31;59251;51.326;12.370;2023-04-25T09:26:06;10.38;67.33
71436;SHT31;59251;51.326;12.370;2023-04-25T09:28:32;10.46;67.01
71436;SHT31;59251;51.326;12.370;2023-04-25T09:30:58;10.66;66.23
71436;SHT31;59251;51.326;12.370;2023-04-25T09:33:32;10.21;67.56
71436;SHT31;59251;51.326;12.370;2023-04-25T09:36:06;10.13;67.16
71436;SHT31;59251;51.326;12.370;2023-04-25T09:38:39;9.76;68.34
71436;SHT31;59251;51.326;12.370;2023-04-25T09:41:05;9.65;69.12
71436;SHT31;59251;51.326;12.370;2023-04-25T09:43:30;9.40;69.71
71436;SHT31;59251;51.326;12.370;2023-04-25T09:45:56;9.60;70.23
71436;SHT31;59251;51.326;12.370;2023-04-25T09:48:25;9.52;70.28
71436;SHT31;59251;51.326;12.370;2023-04-25T09:53:28;9.47;71.21
71436;SHT31;59251;51.326;12.370;2023-04-25T09:55:53;9.65;70.67
71436;SHT31;59251;51.326;12.370;2023-04-25T09:58:20;10.00;69.57
71436;SHT31;59251;51.326;12.370;2023-04-25T10:00:47;9.52;70.20
71436;SHT31;59251;51.326;12.370;2023-04-25T10:03:13;9.70;69.93
71436;SHT31;59251;51.326;12.370;2023-04-25T10:05:40;10.00;69.41
71436;SHT31;59251;51.326;12.370;2023-04-25T10:08:07;9.63;70.42
71436;SHT31;59251;51.326;12.370;2023-04-25T10:10:34;9.86;70.61
71436;SHT31;59251;51.326;12.370;2023-04-25T10:13:03;9.60;70.82
71436;SHT31;59251;51.326;12.370;2023-04-25T10:15:30;9.73;70.65
71436;SHT31;59251;51.326;12.370;2023-04-25T10:17:56;9.70;70.53
71436;SHT31;59251;51.326;12.370;2023-04-25T10:20:22;9.72;70.50
71436;SHT31;59251;51.326;12.370;2023-04-25T10:22:48;9.43;71.94
71436;SHT31;59251;51.326;12.370;2023-04-25T10:25:19;9.69;71.19
71436;SHT31;59251;51.326;12.370;2023-04-25T10:27:45;9.70;71.50
71436;SHT31;59251;51.326;12.370;2023-04-25T10:30:13;9.90;69.98
71436;SHT31;59251;51.326;12.370;2023-04-25T10:32:42;9.98;69.19
71436;SHT31;59251;51.326;12.370;2023-04-25T10:35:25;10.04;69.63
71436;SHT31;59251;51.326;12.370;2023-04-25T10:38:08;9.79;70.03
71436;SHT31;59251;51.326;12.370;2023-04-25T10:40:34;10.04;69.63
71436;SHT31;59251;51.326;12.370;2023-04-25T10:45:54;9.93;69.31
71436;SHT31;59251;51.326;12.370;2023-04-25T10:48:30;9.89;69.69
71436;SHT31;59251;51.326;12.370;2023-04-25T10:51:15;9.76;70.29
71436;SHT31;59251;51.326;12.370;2023-04-25T10:53:41;9.65;70.49
71436;SHT31;59251;51.326;12.370;2023-04-25T10:58:42;9.93;70.30
71436;SHT31;59251;51.326;12.370;2023-04-25T11:01:08;9.93;70.26
71436;SHT31;59251;51.326;12.370;2023-04-25T11:03:38;9.73;70.68
71436;SHT31;59251;51.326;12.370;2023-04-25T11:06:07;9.84;70.89
71436;SHT31;59251;51.326;12.370;2023-04-25T11:08:56;9.90;71.24
71436;SHT31;59251;51.326;12.370;2023-04-25T11:11:22;9.91;70.98
71436;SHT31;59251;51.326;12.370;2023-04-25T11:13:48;9.94;70.38
71436;SHT31;59251;51.326;12.370;2023-04-25T11:16:15;9.93;69.95
71436;SHT31;59251;51.326;12.370;2023-04-25T11:18:43;9.83;69.60
71436;SHT31;59251;51.326;12.370;2023-04-25T11:21:10;9.90;69.66
71436;SHT31;59251;51.326;12.370;2023-04-25T11:23:35;9.84;69.40
71436;SHT31;59251;51.326;12.370;2023-04-25T11:26:02;9.90;69.86
71436;SHT31;59251;51.326;12.370;2023-04-25T11:28:28;9.53;70.16
71436;SHT31;59251;51.326;12.370;2023-04-25T11:30:53;9.65;70.85
71436;SHT31;59251;51.326;12.370;2023-04-25T11:33:23;9.62;70.53
71436;SHT31;59251;51.326;12.370;2023-04-25T11:35:49;9.53;68.13
71436;SHT31;59251;51.326;12.370;2023-04-25T11:38:14;9.50;67.64
71436;SHT31;59251;51.326;12.370;2023-04-25T11:40:40;9.69;68.41
71436;SHT31;59251;51.326;12.370;2023-04-25T11:43:06;9.59;66.64
71436;SHT31;59251;51.326;12.370;2023-04-25T11:45:32;9.69;66.01
71436;SHT31;59251;51.326;12.370;2023-04-25T11:47:57;9.90;65.42
71436;SHT31;59251;51.326;12.370;2023-04-25T11:50:22;10.00;66.07
71436;SHT31;59251;51.326;12.370;2023-04-25T11:52:48;10.05;65.01
71436;SHT31;59251;51.326;12.370;2023-04-25T11:55:16;10.10;65.06
71436;SHT31;59251;51.326;12.370;2023-04-25T11:57:43;9.90;64.01
71436;SHT31;59251;51.326;12.370;2023-04-25T12:00:14;9.91;63.94
71436;SHT31;59251;51.326;12.370;2023-04-25T12:02:55;9.76;63.91
71436;SHT31;59251;51.326;12.370;2023-04-25T12:05:24;9.60;64.36
71436;SHT31;59251;51.326;12.370;2023-04-25T12:07:50;9.74;64.36
71436;SHT31;59251;51.326;12.370;2023-04-25T12:10:17;9.90;64.19
71436;SHT31;59251;51.326;12.370;2023-04-25T12:12:45;10.05;63.64
71436;SHT31;59251;51.326;12.370;2023-04-25T12:15:12;10.17;63.41
71436;SHT31;59251;51.326;12.370;2023-04-25T12:17:42;10.30;62.12
71436;SHT31;59251;51.326;12.370;2023-04-25T12:20:13;10.77;61.05
71436;SHT31;59251;51.326;12.370;2023-04-25T12:22:41;10.79;60.84
71436;SHT31;59251;51.326;12.370;2023-04-25T12:25:09;10.63;61.46
71436;SHT31;59251;51.326;12.370;2023-04-25T12:27:35;10.45;61.84
71436;SHT31;59251;51.326;12.370;2023-04-25T12:30:01;10.40;61.68
71436;SHT31;59251;51.326;12.370;2023-04-25T12:32:26;10.31;61.72
71436;SHT31;59251;51.326;12.370;2023-04-25T12:34:52;10.05;61.99
71436;SHT31;59251;51.326;12.370;2023-04-25T12:37:17;10.14;62.71
71436;SHT31;59251;51.326;12.370;2023-04-25T12:39:43;10.17;63.08
71436;SHT31;59251;51.326;12.370;2023-04-25T12:42:08;10.15;63.45
71436;SHT31;59251;51.326;12.370;2023-04-25T12:44:37;9.95;63.12
71436;SHT31;59251;51.326;12.370;2023-04-25T12:47:03;9.87;63.50
71436;SHT31;59251;51.326;12.370;2023-04-25T12:49:28;10.00;63.46
71436;SHT31;59251;51.326;12.370;2023-04-25T12:51:53;9.91;63.67
71436;SHT31;59251;51.326;12.370;2023-04-25T12:54:19;9.91;62.43
71436;SHT31;59251;51.326;12.370;2023-04-25T12:56:44;9.87;62.74
71436;SHT31;59251;51.326;12.370;2023-04-25T12:59:11;9.91;60.89
71436;SHT31;59251;51.326;12.370;2023-04-25T13:01:36;9.66;59.55
71436;SHT31;59251;51.326;12.370;2023-04-25T13:04:02;9.65;59.28
71436;SHT31;59251;51.326;12.370;2023-04-25T13:06:27;9.70;58.99
71436;SHT31;59251;51.326;12.370;2023-04-25T13:08:55;9.65;58.78
71436;SHT31;59251;51.326;12.370;2023-04-25T13:11:20;9.65;58.28
71436;SHT31;59251;51.326;12.370;2023-04-25T13:13:46;9.49;57.74
71436;SHT31;59251;51.326;12.370;2023-04-25T13:16:11;9.62;57.18
71436;SHT31;59251;51.326;12.370;2023-04-25T13:18:39;9.60;57.62
71436;SHT31;59251;51.326;12.370;2023-04-25T13:21:05;9.63;57.22
71436;SHT31;59251;51.326;12.370;2023-04-25T13:23:30;9.76;56.79
71436;SHT31;59251;51.326;12.370;2023-04-25T13:25:56;9.91;56.33
71436;SHT31;59251;51.326;12.370;2023-04-25T13:28:27;10.32;55.31
71436;SHT31;59251;51.326;12.370;2023-04-25T13:30:52;10.45;55.11
71436;SHT31;59251;51.326;12.370;2023-04-25T13:33:19;10.72;54.48
71436;SHT31;59251;51.326;12.370;2023-04-25T13:35:46;10.90;54.04
71436;SHT31;59251;51.326;12.370;2023-04-25T13:38:14;11.16;52.86
71436;SHT31;59251;51.326;12.370;2023-04-25T13:40:40;11.62;51.76
71436;SHT31;59251;51.326;12.370;2023-04-25T13:43:05;12.00;50.75
71436;SHT31;59251;51.326;12.370;2023-04-25T13:45:31;12.14;50.60
71436;SHT31;59251;51.326;12.370;2023-04-25T13:47:57;12.16;51.06
71436;SHT31;59251;51.326;12.370;2023-04-25T13:50:22;12.45;49.93
71436;SHT31;59251;51.326;12.370;2023-04-25T13:52:48;12.40;49.84
71436;SHT31;59251;51.326;12.370;2023-04-25T13:55:13;12.30;50.12
71436;SHT31;59251;51.326;12.370;2023-04-25T13:57:39;12.55;50.63
71436;SHT31;59251;51.326;12.370;2023-04-25T14:00:05;13.50;49.93
71436;SHT31;59251;51.326;12.370;2023-04-25T14:02:36;13.05;49.86
71436;SHT31;59251;51.326;12.370;2023-04-25T14:05:03;12.74;50.51
71436;SHT31;59251;51.326;12.370;2023-04-25T14:07:29;12.54;50.30
71436;SHT31;59251;51.326;12.370;2023-04-25T14:09:55;11.83;51.15
71436;SHT31;59251;51.326;12.370;2023-04-25T14:12:22;11.76;50.35
71436;SHT31;59251;51.326;12.370;2023-04-25T14:14:48;11.38;51.28
71436;SHT31;59251;51.326;12.370;2023-04-25T14:17:13;11.30;49.55
71436;SHT31;59251;51.326;12.370;2023-04-25T14:19:38;10.96;49.57
71436;SHT31;59251;51.326;12.370;2023-04-25T14:22:08;10.95;48.80
71436;SHT31;59251;51.326;12.370;2023-04-25T14:24:33;10.83;50.20
71436;SHT31;59251;51.326;12.370;2023-04-25T14:26:59;10.65;50.31
71436;SHT31;59251;51.326;12.370;2023-04-25T14:29:26;10.77;50.35
71436;SHT31;59251;51.326;12.370;2023-04-25T14:31:51;10.66;50.28
71436;SHT31;59251;51.326;12.370;2023-04-25T14:34:16;10.68;50.66
71436;SHT31;59251;51.326;12.370;2023-04-25T14:36:42;10.63;51.10
71436;SHT31;59251;51.326;12.370;2023-04-25T14:39:07;10.56;51.26
71436;SHT31;59251;51.326;12.370;2023-04-25T14:41:33;10.77;50.99
71436;SHT31;59251;51.326;12.370;2023-04-25T14:43:59;10.77;50.28
71436;SHT31;59251;51.326;12.370;2023-04-25T14:46:24;10.70;50.82
71436;SHT31;59251;51.326;12.370;2023-04-25T14:48:50;10.80;51.12
71436;SHT31;59251;51.326;12.370;2023-04-25T14:51:15;10.86;49.49
71436;SHT31;59251;51.326;12.370;2023-04-25T14:53:41;10.88;48.64
71436;SHT31;59251;51.326;12.370;2023-04-25T14:56:07;11.06;48.31
71436;SHT31;59251;51.326;12.370;2023-04-25T14:58:33;10.79;48.55
71436;SHT31;59251;51.326;12.370;2023-04-25T15:00:59;10.63;49.15
71436;SHT31;59251;51.326;12.370;2023-04-25T15:03:24;10.77;49.63
71436;SHT31;59251;51.326;12.370;2023-04-25T15:05:49;10.73;50.51
71436;SHT31;59251;51.326;12.370;2023-04-25T15:08:15;10.68;51.55
71436;SHT31;59251;51.326;12.370;2023-04-25T15:10:40;10.70;52.18
71436;SHT31;59251;51.326;12.370;2023-04-25T15:13:05;10.69;52.65
71436;SHT31;59251;51.326;12.370;2023-04-25T15:15:31;10.48;53.26
71436;SHT31;59251;51.326;12.370;2023-04-25T15:17:57;10.68;53.13
71436;SHT31;59251;51.326;12.370;2023-04-25T15:20:23;10.53;53.36
71436;SHT31;59251;51.326;12.370;2023-04-25T15:22:48;10.65;53.54
71436;SHT31;59251;51.326;12.370;2023-04-25T15:25:14;10.63;53.29
71436;SHT31;59251;51.326;12.370;2023-04-25T15:27:40;10.35;53.27
71436;SHT31;59251;51.326;12.370;2023-04-25T15:30:12;10.41;53.39